Time;durP1;ratioP1;P1;durP2;ratioP2;P2;SDS_P1;SDS_P2;PMS_P1;PMS_P2;Temp;Humidity;BMP_temperature;BMP_pressure;BME280_temperature;BME280_humidity;BME280_pressure;Samples;Min_cycle;Max_cycle;Signal;HPM_P1;HPM_P2
2020/12/23 00:02:23;;;;;;;1999.90;999.90;;;13.20;99.90;;;;;;5051442;28;20626;-64
2020/12/23 00:04:49;;;;;;;1999.90;999.90;;;13.10;99.90;;;;;;5051053;28;20203;-64
2020/12/23 00:07:15;;;;;;;1999.90;999.90;;;13.10;99.90;;;;;;5051310;28;20195;-64
2020/12/23 00:09:44;;;;;;;1999.90;999.90;;;13.00;99.90;;;;;;5051037;28;20602;-65
2020/12/23 00:12:11;;;;;;;1999.90;999.90;;;13.00;99.90;;;;;;5051275;28;20402;-65
2020/12/23 00:14:37;;;;;;;1999.90;999.90;;;12.90;99.90;;;;;;5051210;28;20439;-64
2020/12/23 00:17:03;;;;;;;1999.90;999.90;;;12.90;99.90;;;;;;5051134;28;20428;-64
2020/12/23 00:19:29;;;;;;;1999.90;999.90;;;12.90;99.90;;;;;;5050799;28;20460;-65
2020/12/23 00:21:54;;;;;;;1999.90;999.90;;;12.90;99.90;;;;;;5051493;28;20421;-64
2020/12/23 00:24:20;;;;;;;1999.90;999.90;;;12.90;99.90;;;;;;5051013;28;20885;-65
2020/12/23 00:26:46;;;;;;;1999.90;999.90;;;12.90;99.90;;;;;;5051007;28;20176;-65
2020/12/23 00:29:12;;;;;;;1999.90;999.90;;;12.90;99.90;;;;;;5050714;28;20374;-66
2020/12/23 00:31:38;;;;;;;1999.90;999.90;;;12.90;99.90;;;;;;5050975;28;20406;-66
2020/12/23 00:34:04;;;;;;;1999.90;999.90;;;12.90;99.90;;;;;;5050720;28;20429;-65
2020/12/23 00:36:30;;;;;;;1999.90;999.90;;;13.00;99.90;;;;;;5050923;28;20438;-66
2020/12/23 00:38:55;;;;;;;1999.90;999.90;;;13.10;99.90;;;;;;5050719;28;20784;-66
2020/12/23 00:41:21;;;;;;;1999.90;999.90;;;13.00;99.90;;;;;;5050888;28;20329;-65
2020/12/23 00:43:46;;;;;;;1999.90;999.90;;;13.10;99.90;;;;;;5050820;28;20229;-66
2020/12/23 00:46:14;;;;;;;1999.90;999.90;;;13.00;99.90;;;;;;5050737;28;20179;-65
2020/12/23 00:48:40;;;;;;;1999.90;999.90;;;13.10;99.90;;;;;;5050468;28;20175;-64
2020/12/23 00:51:13;;;;;;;1999.90;999.90;;;13.10;99.90;;;;;;5050640;28;20822;-65
2020/12/23 00:53:40;;;;;;;1999.90;999.90;;;13.10;99.90;;;;;;5050755;28;20779;-65
2020/12/23 00:56:05;;;;;;;1999.90;999.90;;;13.10;99.90;;;;;;5054339;28;20493;-63
2020/12/23 00:58:31;;;;;;;1999.90;999.90;;;13.10;99.90;;;;;;5054574;28;20489;-65
2020/12/23 01:00:57;;;;;;;1999.90;999.90;;;13.10;99.90;;;;;;5054754;28;20662;-64
2020/12/23 01:03:23;;;;;;;1999.90;999.90;;;13.10;99.90;;;;;;5054973;28;20647;-66
2020/12/23 01:05:49;;;;;;;1999.90;999.90;;;13.10;99.90;;;;;;5054599;28;20464;-65
2020/12/23 01:08:15;;;;;;;1999.90;999.90;;;13.00;99.90;;;;;;5054422;28;20175;-65
2020/12/23 01:10:42;;;;;;;1999.90;999.90;;;13.00;99.90;;;;;;5054608;28;20460;-64
2020/12/23 01:13:08;;;;;;;1999.90;999.90;;;13.00;99.90;;;;;;5054717;28;20172;-65
2020/12/23 01:15:35;;;;;;;1999.90;999.90;;;13.00;99.90;;;;;;5054492;28;20482;-64
2020/12/23 01:18:02;;;;;;;1999.90;999.90;;;13.00;99.90;;;;;;5054796;28;20183;-66
2020/12/23 01:20:27;;;;;;;1999.90;999.90;;;13.00;99.90;;;;;;5054300;28;20443;-66
2020/12/23 01:22:53;;;;;;;1999.90;999.90;;;13.10;99.90;;;;;;5054437;28;20418;-65
2020/12/23 01:25:18;;;;;;;1999.90;999.90;;;13.10;99.90;;;;;;5054279;28;20219;-63
2020/12/23 01:27:44;;;;;;;1999.90;999.90;;;13.10;99.90;;;;;;5054318;28;20176;-64
2020/12/23 01:30:10;;;;;;;1999.90;999.90;;;13.20;99.90;;;;;;5053940;28;20202;-65
2020/12/23 01:32:35;;;;;;;1999.90;999.90;;;13.20;99.90;;;;;;5054222;28;20174;-65
2020/12/23 01:35:01;;;;;;;1999.90;999.90;;;13.20;99.90;;;;;;5054279;28;20220;-65
2020/12/23 01:37:26;;;;;;;1999.90;999.90;;;13.10;99.90;;;;;;5054064;28;20163;-65
2020/12/23 01:39:52;;;;;;;1999.90;999.90;;;13.10;99.90;;;;;;5053745;28;20653;-65
2020/12/23 01:42:17;;;;;;;1999.90;999.90;;;13.10;99.90;;;;;;5054041;28;20183;-65
2020/12/23 01:44:43;;;;;;;1999.90;999.90;;;13.00;99.90;;;;;;5053894;28;20703;-66
2020/12/23 01:47:22;;;;;;;1999.90;999.90;;;13.00;99.90;;;;;;5053863;28;20187;-65
2020/12/23 01:49:49;;;;;;;1999.90;999.90;;;13.10;99.90;;;;;;5053888;28;20617;-65
2020/12/23 01:52:17;;;;;;;1999.90;999.90;;;13.10;99.90;;;;;;5053851;28;20440;-65
2020/12/23 01:54:42;;;;;;;1999.90;999.90;;;13.00;99.90;;;;;;5053821;28;20440;-64
2020/12/23 01:57:11;;;;;;;1999.90;999.90;;;13.10;99.90;;;;;;5053993;28;20398;-65
2020/12/23 01:59:37;;;;;;;1999.90;999.90;;;13.20;99.90;;;;;;5053976;28;20184;-62
2020/12/23 02:02:28;;;;;;;1999.90;999.90;;;13.20;99.90;;;;;;5053823;28;20419;-66
2020/12/23 02:04:55;;;;;;;1999.90;999.90;;;13.20;99.90;;;;;;5053466;28;20445;-66
2020/12/23 02:07:23;;;;;;;1999.90;999.90;;;13.20;99.90;;;;;;5052930;28;20402;-65
2020/12/23 02:09:51;;;;;;;1999.90;999.90;;;13.20;99.90;;;;;;5053216;28;20483;-64
2020/12/23 02:12:17;;;;;;;1999.90;999.90;;;13.20;99.90;;;;;;5053499;28;20803;-63
2020/12/23 02:14:43;;;;;;;1999.90;999.90;;;13.20;99.90;;;;;;5053394;28;20429;-64
2020/12/23 02:17:09;;;;;;;1999.90;999.90;;;13.10;99.90;;;;;;5053312;28;20402;-65
2020/12/23 02:19:49;;;;;;;1999.90;999.90;;;13.00;99.90;;;;;;5053116;28;20419;-66
2020/12/23 02:22:19;;;;;;;1999.90;999.90;;;13.00;99.90;;;;;;5053244;28;20418;-64
2020/12/23 02:24:46;;;;;;;1999.90;999.90;;;13.10;99.90;;;;;;5053360;28;20426;-65
2020/12/23 02:27:11;;;;;;;1999.90;999.90;;;13.00;99.90;;;;;;5053448;28;20684;-65
2020/12/23 02:29:41;;;;;;;1999.90;999.90;;;12.90;99.90;;;;;;5052866;28;20457;-64
2020/12/23 02:32:07;;;;;;;1999.90;999.90;;;12.90;99.90;;;;;;5053116;28;20530;-65
2020/12/23 02:34:32;;;;;;;1999.90;999.90;;;12.80;99.90;;;;;;5052936;28;20433;-65
2020/12/23 02:36:58;;;;;;;1999.90;999.90;;;12.80;99.90;;;;;;5052989;28;20452;-65
2020/12/23 02:39:24;;;;;;;1999.90;999.90;;;12.80;99.90;;;;;;5052713;28;20174;-63
2020/12/23 02:41:53;;;;;;;1999.90;999.90;;;12.70;99.90;;;;;;5052932;28;20254;-63
2020/12/23 02:44:19;;;;;;;1999.90;999.90;;;12.70;99.90;;;;;;5052819;28;20284;-64
2020/12/23 02:46:50;;;;;;;1999.90;999.90;;;12.70;99.90;;;;;;5052717;28;20572;-65
2020/12/23 02:49:16;;;;;;;1999.90;999.90;;;12.70;99.90;;;;;;5052490;28;20640;-66
2020/12/23 02:51:41;;;;;;;1999.90;999.90;;;12.70;99.90;;;;;;5052730;28;20417;-63
2020/12/23 02:54:07;;;;;;;1999.90;999.90;;;12.60;99.90;;;;;;5052710;28;20199;-66
2020/12/23 02:56:32;;;;;;;1999.90;999.90;;;12.70;99.90;;;;;;5052767;28;20241;-65
2020/12/23 02:58:58;;;;;;;1999.90;999.90;;;12.60;99.90;;;;;;5052408;28;20197;-65
2020/12/23 03:01:23;;;;;;;1999.90;999.90;;;12.70;99.90;;;;;;5052522;28;20175;-64
2020/12/23 03:03:49;;;;;;;1999.90;999.90;;;12.70;99.90;;;;;;5052186;28;20179;-65
2020/12/23 03:06:15;;;;;;;1999.90;999.90;;;12.70;99.90;;;;;;5052479;28;20246;-65
2020/12/23 03:08:40;;;;;;;1999.90;999.90;;;12.60;99.90;;;;;;5052101;28;20540;-64
2020/12/23 03:11:06;;;;;;;1999.90;999.90;;;12.60;99.90;;;;;;5052312;28;20263;-63
2020/12/23 03:13:31;;;;;;;1999.90;999.90;;;12.60;99.90;;;;;;5052343;28;20174;-66
2020/12/23 03:15:57;;;;;;;1999.90;999.90;;;12.60;99.90;;;;;;5052225;28;20222;-65
2020/12/23 03:18:22;;;;;;;1999.90;999.90;;;12.50;99.90;;;;;;5050796;28;20167;-65
2020/12/23 03:20:48;;;;;;;1999.90;999.90;;;12.50;99.90;;;;;;5052199;28;20573;-64
2020/12/23 03:23:13;;;;;;;1999.90;999.90;;;12.40;99.90;;;;;;5052093;28;20168;-63
2020/12/23 03:25:39;;;;;;;1999.90;999.90;;;12.40;99.90;;;;;;5052152;28;20223;-65
2020/12/23 03:28:05;;;;;;;1999.90;999.90;;;12.40;99.90;;;;;;5051988;28;20533;-65
2020/12/23 03:30:30;;;;;;;1999.90;999.90;;;12.40;99.90;;;;;;5051784;28;20195;-63
2020/12/23 03:32:56;;;;;;;1999.90;999.90;;;12.40;99.90;;;;;;5051987;28;20213;-65
2020/12/23 03:35:21;;;;;;;1999.90;999.90;;;12.40;99.90;;;;;;5051843;28;20187;-65
2020/12/23 03:37:47;;;;;;;1999.90;999.90;;;12.30;99.90;;;;;;5051862;28;20174;-65
2020/12/23 03:40:13;;;;;;;1999.90;999.90;;;12.30;99.90;;;;;;5051559;28;20184;-64
2020/12/23 03:42:38;;;;;;;1999.90;999.90;;;12.30;99.90;;;;;;5051893;28;20181;-66
2020/12/23 03:45:04;;;;;;;1999.90;999.90;;;12.30;99.90;;;;;;5051655;28;20192;-65
2020/12/23 03:47:29;;;;;;;1999.90;999.90;;;12.30;99.90;;;;;;5051762;28;20166;-65
2020/12/23 03:49:55;;;;;;;1999.90;999.90;;;12.30;99.90;;;;;;5051279;28;20201;-65
2020/12/23 03:52:20;;;;;;;1999.90;999.90;;;12.30;99.90;;;;;;5051581;28;20175;-63
2020/12/23 03:54:46;;;;;;;1999.90;999.90;;;12.30;99.90;;;;;;5051414;28;20282;-64
2020/12/23 03:57:13;;;;;;;1999.90;999.90;;;12.30;99.90;;;;;;5051547;28;20586;-64
2020/12/23 03:59:38;;;;;;;1999.90;999.90;;;12.30;99.90;;;;;;5051074;28;20231;-65
2020/12/23 04:02:04;;;;;;;1999.90;999.90;;;12.40;99.90;;;;;;5051302;28;20489;-64
2020/12/23 04:04:29;;;;;;;1999.90;999.90;;;12.40;99.90;;;;;;5051139;28;20628;-63
2020/12/23 04:06:55;;;;;;;1999.90;999.90;;;12.40;99.90;;;;;;5051303;28;20174;-65
2020/12/23 04:09:21;;;;;;;1999.90;999.90;;;12.40;99.90;;;;;;5050990;28;20664;-65
2020/12/23 04:11:46;;;;;;;1999.90;999.90;;;12.40;99.90;;;;;;5051183;28;20198;-63
2020/12/23 04:14:12;;;;;;;1999.90;999.90;;;12.40;99.90;;;;;;5051057;28;20186;-65
2020/12/23 04:16:37;;;;;;;1999.90;999.90;;;12.40;99.90;;;;;;5051091;28;20241;-64
2020/12/23 04:19:03;;;;;;;1999.90;999.90;;;12.40;99.90;;;;;;5050890;28;20171;-65
2020/12/23 04:21:28;;;;;;;1999.90;999.90;;;12.40;99.90;;;;;;5051132;28;20174;-64
2020/12/23 04:23:54;;;;;;;1999.90;999.90;;;12.40;99.90;;;;;;5051148;28;20229;-65
2020/12/23 04:26:20;;;;;;;1999.90;999.90;;;12.40;99.90;;;;;;5051012;28;20526;-64
2020/12/23 04:28:45;;;;;;;1999.90;999.90;;;12.40;99.90;;;;;;5050607;28;20171;-64
2020/12/23 04:31:11;;;;;;;1999.90;999.90;;;12.40;99.90;;;;;;5050675;28;20214;-65
2020/12/23 04:33:36;;;;;;;1999.90;999.90;;;12.40;99.90;;;;;;5050930;28;20163;-66
2020/12/23 04:36:02;;;;;;;1999.90;999.90;;;12.30;99.90;;;;;;5050869;28;20251;-64
2020/12/23 04:38:28;;;;;;;1999.90;999.90;;;12.30;99.90;;;;;;5050747;28;20510;-65
2020/12/23 04:40:55;;;;;;;1999.90;999.90;;;12.30;99.90;;;;;;5050851;28;20417;-63
2020/12/23 04:43:20;;;;;;;1999.90;999.90;;;12.30;99.90;;;;;;5050842;28;20180;-65
2020/12/23 04:45:46;;;;;;;1999.90;999.90;;;12.30;99.90;;;;;;5050882;28;20435;-65
2020/12/23 04:48:14;;;;;;;1999.90;999.90;;;12.30;99.90;;;;;;5050374;28;20182;-65
2020/12/23 04:50:44;;;;;;;1999.90;999.90;;;12.40;99.90;;;;;;5068960;22;20490;-61
2020/12/23 04:53:10;;;;;;;1999.90;999.90;;;12.40;99.90;;;;;;5011102;28;20453;-57
2020/12/23 04:55:40;;;;;;;1999.90;999.90;;;12.40;99.90;;;;;;5011180;28;20505;-60
2020/12/23 04:58:08;;;;;;;1999.90;999.90;;;12.40;99.90;;;;;;5010890;28;20399;-60
2020/12/23 05:00:33;;;;;;;1999.90;999.90;;;12.50;99.90;;;;;;5011062;28;21148;-58
2020/12/23 05:02:59;;;;;;;1999.90;999.90;;;12.50;99.90;;;;;;5011087;28;20403;-57
2020/12/23 05:05:24;;;;;;;1999.90;999.90;;;12.50;99.90;;;;;;5011169;28;20196;-59
2020/12/23 05:07:50;;;;;;;1999.90;999.90;;;12.50;99.90;;;;;;5011096;28;20172;-60
2020/12/23 05:10:16;;;;;;;1999.90;999.90;;;12.50;99.90;;;;;;5011015;28;20222;-60
2020/12/23 05:12:43;;;;;;;1999.90;999.90;;;12.50;99.90;;;;;;5010991;28;20418;-60
2020/12/23 05:15:08;;;;;;;1999.90;999.90;;;12.50;99.90;;;;;;5010921;28;20185;-61
2020/12/23 05:17:34;;;;;;;1999.90;999.90;;;12.50;99.90;;;;;;5011176;28;20414;-60
2020/12/23 05:20:01;;;;;;;1999.90;999.90;;;12.60;99.90;;;;;;5010728;28;20704;-57
2020/12/23 05:22:29;;;;;;;1999.90;999.90;;;12.60;99.90;;;;;;5010897;28;20183;-58
2020/12/23 05:24:56;;;;;;;1999.90;999.90;;;12.60;99.90;;;;;;5010840;28;20435;-59
2020/12/23 05:27:24;;;;;;;1999.90;999.90;;;12.60;99.90;;;;;;5010837;28;20411;-61
2020/12/23 05:29:50;;;;;;;1999.90;999.90;;;12.60;99.90;;;;;;5010310;28;20493;-58
2020/12/23 05:32:16;;;;;;;1999.90;999.90;;;12.60;99.90;;;;;;5010787;28;20491;-57
2020/12/23 05:34:43;;;;;;;1999.90;999.90;;;12.60;99.90;;;;;;5011038;28;20987;-60
2020/12/23 05:37:09;;;;;;;1999.90;999.90;;;12.60;99.90;;;;;;5010750;28;20173;-57
2020/12/23 05:39:35;;;;;;;1999.90;999.90;;;12.70;99.90;;;;;;5010453;28;20436;-56
2020/12/23 05:42:02;;;;;;;1999.90;999.90;;;12.70;99.90;;;;;;5012209;28;20496;-55
2020/12/23 05:44:29;;;;;;;1999.90;999.90;;;12.70;99.90;;;;;;5014308;28;20231;-60
2020/12/23 05:46:55;;;;;;;1999.90;999.90;;;12.70;99.90;;;;;;5014323;28;20404;-57
2020/12/23 05:49:22;;;;;;;1999.90;999.90;;;12.70;99.90;;;;;;5013831;28;20412;-59
2020/12/23 05:51:50;;;;;;;1999.90;999.90;;;12.70;99.90;;;;;;5014337;28;20822;-54
2020/12/23 05:54:18;;;;;;;1999.90;999.90;;;12.80;99.90;;;;;;5014222;28;20408;-55
2020/12/23 05:56:44;;;;;;;1999.90;999.90;;;12.80;99.90;;;;;;5014095;28;20796;-58
2020/12/23 05:59:09;;;;;;;1999.90;999.90;;;12.70;99.90;;;;;;5013790;28;20404;-61
2020/12/23 06:01:39;;;;;;;1999.90;999.90;;;12.80;99.90;;;;;;5014010;28;20279;-59
2020/12/23 06:04:06;;;;;;;1999.90;999.90;;;12.70;99.90;;;;;;5014372;28;20190;-56
2020/12/23 06:06:34;;;;;;;1999.90;999.90;;;12.70;99.90;;;;;;5014208;28;20408;-60
2020/12/23 06:09:01;;;;;;;1999.90;999.90;;;12.70;99.90;;;;;;5013629;28;20407;-57
2020/12/23 06:11:36;;;;;;;1999.90;999.90;;;12.60;99.90;;;;;;5013656;28;21057;-57
2020/12/23 06:14:15;;;;;;;1999.90;999.90;;;12.60;99.90;;;;;;5014212;28;20856;-61
2020/12/23 06:16:50;;;;;;;1999.90;999.90;;;12.60;99.90;;;;;;5014625;28;20402;-62
2020/12/23 06:19:39;;;;;;;1999.90;999.90;;;12.60;99.90;;;;;;5014416;28;20454;-62
2020/12/23 06:22:09;;;;;;;1999.90;999.90;;;12.60;99.90;;;;;;5014887;28;20411;-62
2020/12/23 06:24:36;;;;;;;1999.90;999.90;;;12.50;99.90;;;;;;5014557;28;20403;-63
2020/12/23 06:27:07;;;;;;;1999.90;999.90;;;12.50;99.90;;;;;;5014274;28;20411;-62
2020/12/23 06:29:35;;;;;;;1999.90;999.90;;;12.40;99.90;;;;;;5014059;28;21011;-62
2020/12/23 06:32:06;;;;;;;1999.90;999.90;;;12.40;99.90;;;;;;5014330;28;20481;-62
2020/12/23 06:34:40;;;;;;;1999.90;999.90;;;12.40;99.90;;;;;;5013976;28;20394;-62
2020/12/23 06:37:20;;;;;;;1999.90;999.90;;;12.30;99.90;;;;;;5013423;28;20408;-62
2020/12/23 06:39:47;;;;;;;1999.90;999.90;;;12.30;99.90;;;;;;5013082;28;20450;-61
2020/12/23 06:42:13;;;;;;;1999.90;999.90;;;12.30;99.90;;;;;;5013381;28;20411;-59
2020/12/23 06:44:44;;;;;;;1999.90;999.90;;;12.20;99.90;;;;;;5013257;28;20418;-60
2020/12/23 06:47:17;;;;;;;1999.90;999.90;;;12.20;99.90;;;;;;5013204;28;20256;-60
2020/12/23 06:49:44;;;;;;;1999.90;999.90;;;12.20;99.90;;;;;;5012790;28;20478;-61
2020/12/23 06:52:21;;;;;;;1999.90;999.90;;;12.20;99.90;;;;;;5012894;28;20583;-58
2020/12/23 06:55:03;;;;;;;1999.90;999.90;;;12.20;99.90;;;;;;5012993;28;20443;-60
2020/12/23 06:57:37;;;;;;;1999.90;999.90;;;12.20;99.90;;;;;;5013345;28;20416;-59
2020/12/23 07:00:13;;;;;;;1999.90;999.90;;;12.20;99.90;;;;;;5012703;28;20434;-61
2020/12/23 07:02:39;;;;;;;1999.90;999.90;;;12.20;99.90;;;;;;5012931;28;20407;-61
2020/12/23 07:05:04;;;;;;;1999.90;999.90;;;12.20;99.90;;;;;;5012963;28;20422;-59
2020/12/23 07:07:37;;;;;;;1999.90;999.90;;;12.20;99.90;;;;;;5012890;28;20180;-58
2020/12/23 07:10:13;;;;;;;1999.90;999.90;;;12.20;99.90;;;;;;5012421;28;20251;-59
2020/12/23 07:12:52;;;;;;;1999.90;999.90;;;12.20;99.90;;;;;;5012745;28;20411;-61
2020/12/23 07:15:32;;;;;;;1999.90;999.90;;;12.30;99.90;;;;;;5012709;28;20412;-60
2020/12/23 07:18:01;;;;;;;1999.90;999.90;;;12.30;99.90;;;;;;5012610;28;20419;-60
2020/12/23 07:20:34;;;;;;;1999.90;999.90;;;12.30;99.90;;;;;;5012224;28;20435;-60
2020/12/23 07:23:11;;;;;;;1999.90;999.90;;;12.30;99.90;;;;;;5012604;28;20459;-61
2020/12/23 07:25:47;;;;;;;1999.90;999.90;;;12.30;99.90;;;;;;5012517;28;20411;-61
2020/12/23 07:28:16;;;;;;;1999.90;999.90;;;12.30;99.90;;;;;;5012267;28;20415;-57
2020/12/23 07:30:42;;;;;;;1999.90;999.90;;;12.10;99.90;;;;;;5012203;28;20490;-57
2020/12/23 07:33:12;;;;;;;1999.90;999.90;;;12.20;99.90;;;;;;5012420;28;20411;-61
2020/12/23 07:35:39;;;;;;;1999.90;999.90;;;12.10;99.90;;;;;;5012323;28;20411;-58
2020/12/23 07:38:07;;;;;;;1999.90;999.90;;;12.20;99.90;;;;;;5012239;28;20410;-60
2020/12/23 07:40:35;;;;;;;1999.90;999.90;;;12.20;99.90;;;;;;5012106;28;20436;-59
2020/12/23 07:43:00;;;;;;;1999.90;999.90;;;12.20;99.90;;;;;;5012096;28;20421;-60
2020/12/23 07:45:28;;;;;;;1999.90;999.90;;;12.20;99.90;;;;;;5012332;28;20426;-58
2020/12/23 07:47:54;;;;;;;1999.90;999.90;;;12.30;99.90;;;;;;5012045;28;20177;-60
2020/12/23 07:50:20;;;;;;;1999.90;999.90;;;12.30;99.90;;;;;;5011527;28;20478;-61
2020/12/23 07:52:46;;;;;;;1999.90;999.90;;;12.30;99.90;;;;;;5012097;28;20563;-62
2020/12/23 07:55:15;;;;;;;1999.90;999.90;;;12.20;99.90;;;;;;5011968;28;20410;-61
2020/12/23 07:57:42;;;;;;;1999.90;999.90;;;12.20;99.90;;;;;;5012000;28;20184;-59
2020/12/23 08:00:10;;;;;;;1999.90;999.90;;;12.20;99.90;;;;;;5011760;28;20445;-57
2020/12/23 08:02:36;;;;;;;1999.90;999.90;;;12.10;99.90;;;;;;5012038;28;20411;-61
2020/12/23 08:05:06;;;;;;;1999.90;999.90;;;12.20;99.90;;;;;;5011297;28;20415;-61
2020/12/23 08:07:32;;;;;;;1999.90;999.90;;;12.20;99.90;;;;;;5011758;28;20429;-61
2020/12/23 08:10:13;;;;;;;1999.90;999.90;;;12.10;99.90;;;;;;5011462;28;20539;-61
2020/12/23 08:12:40;;;;;;;1999.90;999.90;;;12.10;99.90;;;;;;5011809;28;20175;-60
2020/12/23 08:15:13;;;;;;;1999.90;999.90;;;12.10;99.90;;;;;;5011772;28;20414;-60
2020/12/23 08:17:40;;;;;;;1999.90;999.90;;;12.10;99.90;;;;;;5011839;28;20786;-59
2020/12/23 08:20:11;;;;;;;1999.90;999.90;;;12.10;99.90;;;;;;5011366;28;20435;-55
2020/12/23 08:22:39;;;;;;;1999.90;999.90;;;12.10;99.90;;;;;;5011480;28;20410;-59
2020/12/23 08:25:10;;;;;;;1999.90;999.90;;;12.20;99.90;;;;;;5011538;28;20418;-58
2020/12/23 08:27:37;;;;;;;1999.90;999.90;;;12.20;99.90;;;;;;5011416;28;20465;-60
2020/12/23 08:30:09;;;;;;;1999.90;999.90;;;12.30;99.90;;;;;;5011299;28;20463;-59
2020/12/23 08:32:38;;;;;;;1999.90;999.90;;;12.30;99.90;;;;;;5011448;28;20471;-59
2020/12/23 08:35:05;;;;;;;1999.90;999.90;;;12.30;99.90;;;;;;5011333;28;20412;-57
2020/12/23 08:37:34;;;;;;;1999.90;999.90;;;12.30;99.90;;;;;;5011252;28;20497;-58
2020/12/23 08:39:59;;;;;;;1999.90;999.90;;;12.40;99.90;;;;;;5011262;28;20435;-57
2020/12/23 08:42:25;;;;;;;1999.90;999.90;;;12.50;99.90;;;;;;5011396;28;20799;-57
2020/12/23 08:44:56;;;;;;;1999.90;999.90;;;12.50;99.90;;;;;;5011209;28;20176;-56
2020/12/23 08:47:24;;;;;;;1999.90;999.90;;;12.50;99.90;;;;;;5011284;28;20415;-56
2020/12/23 08:49:51;;;;;;;1999.90;999.90;;;12.60;99.90;;;;;;5010672;28;20555;-57
2020/12/23 08:52:21;;;;;;;1999.90;999.90;;;12.50;99.90;;;;;;5011338;28;20418;-56
2020/12/23 08:54:50;;;;;;;1999.90;999.90;;;12.50;99.90;;;;;;5011148;28;20406;-59
2020/12/23 08:57:22;;;;;;;1999.90;999.90;;;12.60;99.90;;;;;;5011296;28;20466;-57
2020/12/23 08:59:47;;;;;;;1999.90;999.90;;;12.60;99.90;;;;;;5010769;28;20424;-58
2020/12/23 09:02:14;;;;;;;1999.90;999.90;;;12.50;99.90;;;;;;5011069;28;20919;-58
2020/12/23 09:04:40;;;;;;;1999.90;999.90;;;12.60;99.90;;;;;;5008244;28;20268;-57
2020/12/23 09:07:06;;;;;;;1999.90;999.90;;;12.60;99.90;;;;;;5009330;28;20416;-59
2020/12/23 09:09:32;;;;;;;1999.90;999.90;;;12.60;99.90;;;;;;5009520;28;20179;-58
2020/12/23 09:11:58;;;;;;;1999.90;999.90;;;12.60;99.90;;;;;;5009535;28;20478;-58
2020/12/23 09:14:34;;;;;;;1999.90;999.90;;;12.60;99.90;;;;;;5009819;28;20408;-59
2020/12/23 09:17:12;;;;;;;1999.90;999.90;;;12.70;99.90;;;;;;5012954;28;20414;-55
2020/12/23 09:19:50;;;;;;;1999.90;999.90;;;12.70;99.90;;;;;;5013222;28;20913;-58
2020/12/23 09:22:28;;;;;;;1999.90;999.90;;;12.70;99.90;;;;;;5013747;28;20410;-58
2020/12/23 09:25:12;;;;;;;1999.90;999.90;;;12.70;99.90;;;;;;5013710;28;20416;-59
2020/12/23 09:27:37;;;;;;;1999.90;999.90;;;12.80;99.90;;;;;;5013267;28;20451;-59
2020/12/23 09:30:05;;;;;;;1999.90;999.90;;;12.80;99.90;;;;;;5013118;28;20487;-59
2020/12/23 09:32:31;;;;;;;1999.90;999.90;;;13.00;99.90;;;;;;5013767;28;20171;-57
2020/12/23 09:35:16;;;;;;;1999.90;999.90;;;13.00;99.90;;;;;;5012975;28;20407;-58
2020/12/23 09:37:47;;;;;;;1999.90;999.90;;;13.00;99.90;;;;;;5013319;28;20468;-59
2020/12/23 09:40:13;;;;;;;1999.90;999.90;;;13.20;99.90;;;;;;5013332;28;20526;-59
2020/12/23 09:42:39;;;;;;;1999.90;999.90;;;13.20;99.90;;;;;;5012952;28;20450;-62
2020/12/23 09:45:06;;;;;;;1999.90;999.90;;;13.30;99.90;;;;;;5013153;28;20439;-62
2020/12/23 09:47:32;;;;;;;1999.90;999.90;;;13.40;99.90;;;;;;5013230;28;20177;-61
2020/12/23 09:50:00;;;;;;;1999.90;999.90;;;13.40;99.90;;;;;;5012709;28;20488;-60
2020/12/23 09:52:26;;;;;;;1999.90;999.90;;;13.40;99.90;;;;;;5013148;28;20783;-61
2020/12/23 09:54:52;;;;;;;1999.90;999.90;;;13.40;99.90;;;;;;5013038;28;20408;-61
2020/12/23 09:57:18;;;;;;;1999.90;999.90;;;13.40;99.90;;;;;;5012648;28;20210;-61
2020/12/23 09:59:43;;;;;;;1999.90;999.90;;;13.50;99.90;;;;;;5012857;28;20990;-61
2020/12/23 10:02:09;;;;;;;1999.90;999.90;;;13.50;99.90;;;;;;5013152;28;20191;-59
2020/12/23 10:04:35;;;;;;;1999.90;999.90;;;13.50;99.90;;;;;;5012411;28;20179;-59
2020/12/23 10:07:00;;;;;;;1999.90;999.90;;;13.50;99.90;;;;;;5012615;28;20177;-61
2020/12/23 10:09:26;;;;;;;1999.90;999.90;;;13.50;99.90;;;;;;5012779;28;20215;-61
2020/12/23 10:11:51;;;;;;;1999.90;999.90;;;13.40;99.90;;;;;;5012335;28;20435;-57
2020/12/23 10:14:17;;;;;;;1999.90;999.90;;;13.40;99.90;;;;;;5012645;28;20170;-58
2020/12/23 10:16:43;;;;;;;1999.90;999.90;;;13.30;99.90;;;;;;5012341;28;20173;-57
2020/12/23 10:19:08;;;;;;;1999.90;999.90;;;13.30;99.90;;;;;;5011735;28;20240;-58
2020/12/23 10:21:34;;;;;;;1999.90;999.90;;;13.30;99.90;;;;;;5009232;28;20744;-63
2020/12/23 10:23:59;;;;;;;1999.90;999.90;;;13.30;99.90;;;;;;4992182;28;20194;-59
2020/12/23 10:26:25;;;;;;;1999.90;999.90;;;13.30;99.90;;;;;;4991536;28;20209;-62
2020/12/23 10:28:51;;;;;;;1999.90;999.90;;;13.30;99.90;;;;;;4991247;28;20557;-61
2020/12/23 10:31:16;;;;;;;1999.90;999.90;;;13.30;99.90;;;;;;4992121;28;20265;-60
2020/12/23 10:33:42;;;;;;;1999.90;999.90;;;13.20;99.90;;;;;;4991700;28;20178;-62
2020/12/23 10:36:12;;;;;;;1999.90;999.90;;;13.20;99.90;;;;;;4992089;28;20264;-63
2020/12/23 10:38:40;;;;;;;1999.90;999.90;;;13.20;99.90;;;;;;4991909;28;20212;-62
2020/12/23 10:41:05;;;;;;;1999.90;999.90;;;13.20;99.90;;;;;;4991605;28;20463;-60
2020/12/23 10:43:31;;;;;;;1999.90;999.90;;;13.20;99.90;;;;;;4992409;28;20414;-61
2020/12/23 10:45:56;;;;;;;1999.90;999.90;;;13.30;99.90;;;;;;4992354;28;20193;-59
2020/12/23 10:48:22;;;;;;;1999.90;999.90;;;13.30;99.90;;;;;;4991972;28;20173;-60
2020/12/23 10:50:48;;;;;;;1999.90;999.90;;;13.30;99.90;;;;;;4992085;28;20216;-60
2020/12/23 10:53:13;;;;;;;1999.90;999.90;;;13.30;99.90;;;;;;4992216;28;20250;-61
2020/12/23 10:55:39;;;;;;;1999.90;999.90;;;13.30;99.90;;;;;;4991815;28;20166;-60
2020/12/23 10:58:04;;;;;;;1999.90;999.90;;;13.30;99.90;;;;;;4992123;28;20173;-59
2020/12/23 11:00:30;;;;;;;1999.90;999.90;;;13.30;99.90;;;;;;4991612;28;20284;-60
2020/12/23 11:02:56;;;;;;;1999.90;999.90;;;13.30;99.90;;;;;;4991568;28;20176;-61
2020/12/23 11:05:22;;;;;;;1999.90;999.90;;;13.20;99.90;;;;;;4991732;28;20472;-61
2020/12/23 11:07:48;;;;;;;1999.90;999.90;;;13.20;99.90;;;;;;4992098;28;20197;-61
2020/12/23 11:10:14;;;;;;;1999.90;999.90;;;13.30;99.90;;;;;;4991576;28;20205;-59
2020/12/23 11:12:40;;;;;;;1999.90;999.90;;;13.30;99.90;;;;;;4991663;28;20204;-62
2020/12/23 11:15:06;;;;;;;1999.90;999.90;;;13.40;99.90;;;;;;4991705;28;20401;-62
2020/12/23 11:17:31;;;;;;;1999.90;999.90;;;13.30;99.90;;;;;;4991488;28;20405;-61
2020/12/23 11:19:57;;;;;;;1999.90;999.90;;;13.30;99.90;;;;;;4991561;28;20208;-59
2020/12/23 11:22:23;;;;;;;1999.90;999.90;;;13.30;99.90;;;;;;4991519;28;20627;-61
2020/12/23 11:24:48;;;;;;;1999.90;999.90;;;13.40;99.90;;;;;;4990979;28;20202;-62
2020/12/23 11:27:17;;;;;;;1999.90;999.90;;;13.40;99.90;;;;;;4991525;28;20243;-62
2020/12/23 11:29:42;;;;;;;1999.90;999.90;;;13.40;99.90;;;;;;4990806;28;20251;-62
2020/12/23 11:32:08;;;;;;;1999.90;999.90;;;13.40;99.90;;;;;;4990832;28;20401;-62
2020/12/23 11:34:34;;;;;;;1999.90;999.90;;;13.40;99.90;;;;;;4991337;28;20643;-59
2020/12/23 11:37:00;;;;;;;1999.90;999.90;;;13.40;99.90;;;;;;4991285;28;20181;-58
2020/12/23 11:39:29;;;;;;;1999.90;999.90;;;13.40;99.90;;;;;;4989610;28;20170;-59
2020/12/23 11:42:00;;;;;;;1999.90;999.90;;;13.30;99.90;;;;;;4990677;28;20415;-62
2020/12/23 11:44:26;;;;;;;1999.90;999.90;;;13.30;99.90;;;;;;4991130;28;20769;-61
2020/12/23 11:46:52;;;;;;;1999.90;999.90;;;13.30;99.90;;;;;;4990380;28;20405;-60
2020/12/23 11:49:18;;;;;;;1999.90;999.90;;;13.40;99.90;;;;;;4990578;28;20421;-58
2020/12/23 11:51:46;;;;;;;1999.90;999.90;;;13.40;99.90;;;;;;4990920;28;20456;-61
2020/12/23 11:54:12;;;;;;;1999.90;999.90;;;13.40;99.90;;;;;;4990511;28;20162;-61
2020/12/23 11:56:38;;;;;;;1999.90;999.90;;;13.40;99.90;;;;;;4990673;28;20436;-60
2020/12/23 11:59:04;;;;;;;1999.90;999.90;;;13.40;99.90;;;;;;4990610;28;20173;-59
2020/12/23 12:01:29;;;;;;;1999.90;999.90;;;13.50;99.90;;;;;;4990153;28;20251;-62